Saint Germain, Wisconsin
Current Conditions -  °F | °C
As of 6:55 PM on Friday 24 Oct 2014 (Local Time) from KEGV Reporting Station
Overcast Overcast  
Wind Chill: 55°   Ceiling: 2000
Heat Index: 55°   Visibility: 10mi
Dew Point: 45°   Wind: 9mph
Humidity: 67%   Direction: 220°SW
Pressure: 29.83"   Gusts: NA
Location:  45.9°N, 89.49°W
Report Text: KEGV 242355Z AUTO 22008KT 10SM OVC020 13/07 A2983 RMK AO2 T01300070 10165 20124
Loading
Personal Weather Stations






























Interactive Weather Map New forecast layout! Learn more

10-Day Weather Forecast

Advertisements
Track Severe Weather on mobile